sensor_id;sensor_type;location;lat;lon;timestamp;P1;durP1;ratioP1;P2;durP2;ratioP2
26908;SDS011;14477;51.038;4.588;2024-02-26T00:01:37;1.48;;;1.08;;
26908;SDS011;14477;51.038;4.588;2024-02-26T00:04:03;0.90;;;0.70;;
26908;SDS011;14477;51.038;4.588;2024-02-26T00:06:29;2.13;;;1.02;;
26908;SDS011;14477;51.038;4.588;2024-02-26T00:08:56;1.98;;;1.05;;
26908;SDS011;14477;51.038;4.588;2024-02-26T00:11:22;1.30;;;0.98;;
26908;SDS011;14477;51.038;4.588;2024-02-26T00:13:47;1.80;;;0.90;;
26908;SDS011;14477;51.038;4.588;2024-02-26T00:16:13;1.23;;;0.95;;
26908;SDS011;14477;51.038;4.588;2024-02-26T00:18:39;1.20;;;0.90;;
26908;SDS011;14477;51.038;4.588;2024-02-26T00:21:05;1.98;;;0.95;;
26908;SDS011;14477;51.038;4.588;2024-02-26T00:23:31;1.20;;;0.83;;
26908;SDS011;14477;51.038;4.588;2024-02-26T00:25:57;1.58;;;1.00;;
26908;SDS011;14477;51.038;4.588;2024-02-26T00:28:23;1.30;;;1.00;;
26908;SDS011;14477;51.038;4.588;2024-02-26T00:30:49;1.50;;;0.68;;
26908;SDS011;14477;51.038;4.588;2024-02-26T00:33:20;1.75;;;1.00;;
26908;SDS011;14477;51.038;4.588;2024-02-26T00:35:47;1.00;;;0.80;;
26908;SDS011;14477;51.038;4.588;2024-02-26T00:38:13;2.05;;;0.93;;
26908;SDS011;14477;51.038;4.588;2024-02-26T00:40:38;1.45;;;0.90;;
26908;SDS011;14477;51.038;4.588;2024-02-26T00:43:06;1.85;;;0.85;;
26908;SDS011;14477;51.038;4.588;2024-02-26T00:45:32;0.80;;;0.80;;
26908;SDS011;14477;51.038;4.588;2024-02-26T00:47:58;0.90;;;0.70;;
26908;SDS011;14477;51.038;4.588;2024-02-26T00:50:26;1.10;;;0.75;;
26908;SDS011;14477;51.038;4.588;2024-02-26T00:52:52;0.75;;;0.75;;
26908;SDS011;14477;51.038;4.588;2024-02-26T00:55:18;1.30;;;0.80;;
26908;SDS011;14477;51.038;4.588;2024-02-26T00:57:43;1.30;;;0.80;;
26908;SDS011;14477;51.038;4.588;2024-02-26T01:00:09;3.00;;;1.00;;
26908;SDS011;14477;51.038;4.588;2024-02-26T01:02:35;1.08;;;0.80;;
26908;SDS011;14477;51.038;4.588;2024-02-26T01:05:02;1.20;;;0.80;;
26908;SDS011;14477;51.038;4.588;2024-02-26T01:07:28;0.90;;;0.80;;
26908;SDS011;14477;51.038;4.588;2024-02-26T01:09:53;1.35;;;0.90;;
26908;SDS011;14477;51.038;4.588;2024-02-26T01:12:19;1.47;;;0.80;;
26908;SDS011;14477;51.038;4.588;2024-02-26T01:14:45;1.63;;;0.80;;
26908;SDS011;14477;51.038;4.588;2024-02-26T01:17:10;0.93;;;0.80;;
26908;SDS011;14477;51.038;4.588;2024-02-26T01:19:36;1.40;;;1.00;;
26908;SDS011;14477;51.038;4.588;2024-02-26T01:22:02;2.43;;;1.00;;
26908;SDS011;14477;51.038;4.588;2024-02-26T01:24:28;1.30;;;0.90;;
26908;SDS011;14477;51.038;4.588;2024-02-26T01:26:54;1.00;;;0.90;;
26908;SDS011;14477;51.038;4.588;2024-02-26T01:29:20;1.60;;;1.00;;
26908;SDS011;14477;51.038;4.588;2024-02-26T01:31:46;1.85;;;0.90;;
26908;SDS011;14477;51.038;4.588;2024-02-26T01:34:11;1.35;;;1.00;;
26908;SDS011;14477;51.038;4.588;2024-02-26T01:36:37;1.50;;;1.10;;
26908;SDS011;14477;51.038;4.588;2024-02-26T01:39:03;1.70;;;1.05;;
26908;SDS011;14477;51.038;4.588;2024-02-26T01:41:29;1.37;;;1.00;;
26908;SDS011;14477;51.038;4.588;2024-02-26T01:43:54;1.67;;;1.00;;
26908;SDS011;14477;51.038;4.588;2024-02-26T01:46:20;1.40;;;1.00;;
26908;SDS011;14477;51.038;4.588;2024-02-26T01:48:47;2.40;;;1.10;;
26908;SDS011;14477;51.038;4.588;2024-02-26T01:51:15;1.35;;;0.90;;
26908;SDS011;14477;51.038;4.588;2024-02-26T01:53:42;1.50;;;1.10;;
26908;SDS011;14477;51.038;4.588;2024-02-26T01:56:08;1.50;;;0.93;;
26908;SDS011;14477;51.038;4.588;2024-02-26T01:58:34;2.03;;;1.15;;
26908;SDS011;14477;51.038;4.588;2024-02-26T02:01:01;2.20;;;1.00;;
26908;SDS011;14477;51.038;4.588;2024-02-26T02:03:28;1.92;;;1.27;;
26908;SDS011;14477;51.038;4.588;2024-02-26T02:05:55;1.90;;;1.20;;
26908;SDS011;14477;51.038;4.588;2024-02-26T02:08:21;1.95;;;1.20;;
26908;SDS011;14477;51.038;4.588;2024-02-26T02:10:49;3.10;;;1.33;;
26908;SDS011;14477;51.038;4.588;2024-02-26T02:13:16;2.43;;;1.10;;
26908;SDS011;14477;51.038;4.588;2024-02-26T02:15:41;1.80;;;1.08;;
26908;SDS011;14477;51.038;4.588;2024-02-26T02:18:07;2.15;;;1.20;;
26908;SDS011;14477;51.038;4.588;2024-02-26T02:20:33;1.90;;;1.03;;
26908;SDS011;14477;51.038;4.588;2024-02-26T02:23:00;1.25;;;1.00;;
26908;SDS011;14477;51.038;4.588;2024-02-26T02:25:26;2.75;;;1.10;;
26908;SDS011;14477;51.038;4.588;2024-02-26T02:27:53;2.47;;;1.30;;
26908;SDS011;14477;51.038;4.588;2024-02-26T02:30:24;2.08;;;1.20;;
26908;SDS011;14477;51.038;4.588;2024-02-26T02:32:53;1.95;;;1.10;;
26908;SDS011;14477;51.038;4.588;2024-02-26T02:35:19;1.70;;;1.10;;
26908;SDS011;14477;51.038;4.588;2024-02-26T02:37:44;2.73;;;1.53;;
26908;SDS011;14477;51.038;4.588;2024-02-26T02:40:10;2.47;;;1.60;;
26908;SDS011;14477;51.038;4.588;2024-02-26T02:42:36;1.77;;;1.30;;
26908;SDS011;14477;51.038;4.588;2024-02-26T02:45:01;2.40;;;1.70;;
26908;SDS011;14477;51.038;4.588;2024-02-26T02:47:27;2.27;;;1.37;;
26908;SDS011;14477;51.038;4.588;2024-02-26T02:49:53;2.47;;;1.40;;
26908;SDS011;14477;51.038;4.588;2024-02-26T02:52:19;2.93;;;1.60;;
26908;SDS011;14477;51.038;4.588;2024-02-26T02:54:44;4.10;;;1.40;;
26908;SDS011;14477;51.038;4.588;2024-02-26T02:57:11;2.80;;;1.33;;
26908;SDS011;14477;51.038;4.588;2024-02-26T02:59:37;4.47;;;1.50;;
26908;SDS011;14477;51.038;4.588;2024-02-26T03:02:04;1.98;;;1.45;;
26908;SDS011;14477;51.038;4.588;2024-02-26T03:04:30;2.33;;;1.50;;
26908;SDS011;14477;51.038;4.588;2024-02-26T03:06:55;1.80;;;1.30;;
26908;SDS011;14477;51.038;4.588;2024-02-26T03:09:22;1.63;;;1.20;;
26908;SDS011;14477;51.038;4.588;2024-02-26T03:11:48;3.10;;;1.63;;
26908;SDS011;14477;51.038;4.588;2024-02-26T03:14:14;2.70;;;1.40;;
26908;SDS011;14477;51.038;4.588;2024-02-26T03:16:40;2.00;;;1.40;;
26908;SDS011;14477;51.038;4.588;2024-02-26T03:19:05;3.57;;;1.90;;
26908;SDS011;14477;51.038;4.588;2024-02-26T03:21:31;4.28;;;1.80;;
26908;SDS011;14477;51.038;4.588;2024-02-26T03:23:56;2.60;;;1.50;;
26908;SDS011;14477;51.038;4.588;2024-02-26T03:26:22;2.38;;;1.52;;
26908;SDS011;14477;51.038;4.588;2024-02-26T03:28:48;2.73;;;1.70;;
26908;SDS011;14477;51.038;4.588;2024-02-26T03:31:14;2.42;;;1.60;;
26908;SDS011;14477;51.038;4.588;2024-02-26T03:33:40;3.30;;;1.63;;
26908;SDS011;14477;51.038;4.588;2024-02-26T03:36:05;2.40;;;1.60;;
26908;SDS011;14477;51.038;4.588;2024-02-26T03:38:32;3.55;;;1.90;;
26908;SDS011;14477;51.038;4.588;2024-02-26T03:40:58;3.10;;;2.00;;
26908;SDS011;14477;51.038;4.588;2024-02-26T03:43:24;3.42;;;2.20;;
26908;SDS011;14477;51.038;4.588;2024-02-26T03:45:49;4.57;;;2.27;;
26908;SDS011;14477;51.038;4.588;2024-02-26T03:48:15;3.00;;;2.00;;
26908;SDS011;14477;51.038;4.588;2024-02-26T03:50:41;3.03;;;1.80;;
26908;SDS011;14477;51.038;4.588;2024-02-26T03:53:07;3.03;;;2.10;;
26908;SDS011;14477;51.038;4.588;2024-02-26T03:55:34;3.80;;;2.10;;
26908;SDS011;14477;51.038;4.588;2024-02-26T03:58:00;4.07;;;2.28;;
26908;SDS011;14477;51.038;4.588;2024-02-26T04:00:26;3.47;;;2.00;;
26908;SDS011;14477;51.038;4.588;2024-02-26T04:02:54;4.32;;;2.22;;
26908;SDS011;14477;51.038;4.588;2024-02-26T04:05:20;3.83;;;2.22;;
26908;SDS011;14477;51.038;4.588;2024-02-26T04:07:46;4.50;;;2.83;;
26908;SDS011;14477;51.038;4.588;2024-02-26T04:10:12;4.78;;;2.45;;
26908;SDS011;14477;51.038;4.588;2024-02-26T04:12:38;3.65;;;2.10;;
26908;SDS011;14477;51.038;4.588;2024-02-26T04:15:06;4.38;;;2.45;;
26908;SDS011;14477;51.038;4.588;2024-02-26T04:17:35;4.43;;;2.33;;
26908;SDS011;14477;51.038;4.588;2024-02-26T04:20:02;3.60;;;2.17;;
26908;SDS011;14477;51.038;4.588;2024-02-26T04:22:30;3.90;;;2.33;;
26908;SDS011;14477;51.038;4.588;2024-02-26T04:24:58;4.93;;;2.65;;
26908;SDS011;14477;51.038;4.588;2024-02-26T04:27:23;4.30;;;2.70;;
26908;SDS011;14477;51.038;4.588;2024-02-26T04:29:49;5.28;;;3.30;;
26908;SDS011;14477;51.038;4.588;2024-02-26T04:32:15;8.43;;;3.50;;
26908;SDS011;14477;51.038;4.588;2024-02-26T04:34:41;6.00;;;3.35;;
26908;SDS011;14477;51.038;4.588;2024-02-26T04:37:07;4.78;;;3.03;;
26908;SDS011;14477;51.038;4.588;2024-02-26T04:39:33;6.40;;;3.00;;
26908;SDS011;14477;51.038;4.588;2024-02-26T04:41:58;5.93;;;3.35;;
26908;SDS011;14477;51.038;4.588;2024-02-26T04:44:24;6.77;;;3.80;;
26908;SDS011;14477;51.038;4.588;2024-02-26T04:46:50;6.85;;;4.25;;
26908;SDS011;14477;51.038;4.588;2024-02-26T04:49:16;5.90;;;4.00;;
26908;SDS011;14477;51.038;4.588;2024-02-26T04:51:41;6.45;;;4.20;;
26908;SDS011;14477;51.038;4.588;2024-02-26T04:54:07;5.87;;;3.70;;
26908;SDS011;14477;51.038;4.588;2024-02-26T04:56:33;5.00;;;3.40;;
26908;SDS011;14477;51.038;4.588;2024-02-26T04:58:59;5.55;;;3.50;;
26908;SDS011;14477;51.038;4.588;2024-02-26T05:01:24;7.40;;;4.53;;
26908;SDS011;14477;51.038;4.588;2024-02-26T05:03:50;7.13;;;3.97;;
26908;SDS011;14477;51.038;4.588;2024-02-26T05:06:15;6.30;;;3.97;;
26908;SDS011;14477;51.038;4.588;2024-02-26T05:08:41;7.00;;;4.00;;
26908;SDS011;14477;51.038;4.588;2024-02-26T05:11:10;6.05;;;3.95;;
26908;SDS011;14477;51.038;4.588;2024-02-26T05:13:36;7.50;;;4.88;;
26908;SDS011;14477;51.038;4.588;2024-02-26T05:16:02;7.13;;;4.38;;
26908;SDS011;14477;51.038;4.588;2024-02-26T05:18:28;6.20;;;4.00;;
26908;SDS011;14477;51.038;4.588;2024-02-26T05:20:53;7.60;;;4.40;;
26908;SDS011;14477;51.038;4.588;2024-02-26T05:23:19;7.23;;;4.60;;
26908;SDS011;14477;51.038;4.588;2024-02-26T05:25:44;5.87;;;3.70;;
26908;SDS011;14477;51.038;4.588;2024-02-26T05:28:12;5.75;;;3.65;;
26908;SDS011;14477;51.038;4.588;2024-02-26T05:30:38;5.47;;;3.40;;
26908;SDS011;14477;51.038;4.588;2024-02-26T05:33:05;5.57;;;3.40;;
26908;SDS011;14477;51.038;4.588;2024-02-26T05:35:30;4.83;;;3.03;;
26908;SDS011;14477;51.038;4.588;2024-02-26T05:37:56;5.82;;;4.13;;
26908;SDS011;14477;51.038;4.588;2024-02-26T05:40:22;4.30;;;3.10;;
26908;SDS011;14477;51.038;4.588;2024-02-26T05:42:48;4.82;;;3.10;;
26908;SDS011;14477;51.038;4.588;2024-02-26T05:45:14;4.97;;;3.17;;
26908;SDS011;14477;51.038;4.588;2024-02-26T05:47:40;6.43;;;4.20;;
26908;SDS011;14477;51.038;4.588;2024-02-26T05:50:10;5.72;;;3.60;;
26908;SDS011;14477;51.038;4.588;2024-02-26T05:52:36;5.70;;;3.75;;
26908;SDS011;14477;51.038;4.588;2024-02-26T05:55:05;5.60;;;3.80;;
26908;SDS011;14477;51.038;4.588;2024-02-26T05:57:32;4.95;;;3.55;;
26908;SDS011;14477;51.038;4.588;2024-02-26T05:59:59;5.37;;;3.70;;
26908;SDS011;14477;51.038;4.588;2024-02-26T06:02:27;5.75;;;3.83;;
26908;SDS011;14477;51.038;4.588;2024-02-26T06:04:53;5.22;;;3.58;;
26908;SDS011;14477;51.038;4.588;2024-02-26T06:07:19;7.43;;;4.70;;
26908;SDS011;14477;51.038;4.588;2024-02-26T06:09:44;6.13;;;4.10;;
26908;SDS011;14477;51.038;4.588;2024-02-26T06:12:10;6.20;;;4.00;;
26908;SDS011;14477;51.038;4.588;2024-02-26T06:14:36;6.03;;;4.00;;
26908;SDS011;14477;51.038;4.588;2024-02-26T06:17:02;6.03;;;3.73;;
26908;SDS011;14477;51.038;4.588;2024-02-26T06:19:27;4.85;;;3.25;;
26908;SDS011;14477;51.038;4.588;2024-02-26T06:21:53;6.05;;;3.78;;
26908;SDS011;14477;51.038;4.588;2024-02-26T06:24:19;6.60;;;4.63;;
26908;SDS011;14477;51.038;4.588;2024-02-26T06:26:47;6.57;;;4.60;;
26908;SDS011;14477;51.038;4.588;2024-02-26T06:29:13;5.05;;;3.63;;
26908;SDS011;14477;51.038;4.588;2024-02-26T06:31:39;6.03;;;4.28;;
26908;SDS011;14477;51.038;4.588;2024-02-26T06:34:05;6.57;;;4.50;;
26908;SDS011;14477;51.038;4.588;2024-02-26T06:36:31;5.60;;;3.90;;
26908;SDS011;14477;51.038;4.588;2024-02-26T06:38:57;5.13;;;3.40;;
26908;SDS011;14477;51.038;4.588;2024-02-26T06:41:23;6.20;;;4.00;;
26908;SDS011;14477;51.038;4.588;2024-02-26T06:43:53;5.32;;;3.60;;
26908;SDS011;14477;51.038;4.588;2024-02-26T06:46:19;5.28;;;3.40;;
26908;SDS011;14477;51.038;4.588;2024-02-26T06:48:45;6.90;;;4.90;;
26908;SDS011;14477;51.038;4.588;2024-02-26T06:51:10;7.13;;;4.88;;
26908;SDS011;14477;51.038;4.588;2024-02-26T06:53:36;7.17;;;4.23;;
26908;SDS011;14477;51.038;4.588;2024-02-26T06:56:02;6.13;;;4.18;;
26908;SDS011;14477;51.038;4.588;2024-02-26T06:58:28;6.03;;;4.05;;
26908;SDS011;14477;51.038;4.588;2024-02-26T07:00:53;6.17;;;4.20;;
26908;SDS011;14477;51.038;4.588;2024-02-26T07:03:19;6.10;;;4.17;;
26908;SDS011;14477;51.038;4.588;2024-02-26T07:05:45;6.22;;;3.80;;
26908;SDS011;14477;51.038;4.588;2024-02-26T07:08:11;5.47;;;3.20;;
26908;SDS011;14477;51.038;4.588;2024-02-26T07:10:36;4.73;;;3.20;;
26908;SDS011;14477;51.038;4.588;2024-02-26T07:13:02;5.50;;;3.70;;
26908;SDS011;14477;51.038;4.588;2024-02-26T07:15:28;5.47;;;3.70;;
26908;SDS011;14477;51.038;4.588;2024-02-26T07:17:54;5.10;;;3.38;;
26908;SDS011;14477;51.038;4.588;2024-02-26T07:20:20;5.03;;;3.37;;
26908;SDS011;14477;51.038;4.588;2024-02-26T07:22:45;5.30;;;3.50;;
26908;SDS011;14477;51.038;4.588;2024-02-26T07:25:11;4.83;;;3.37;;
26908;SDS011;14477;51.038;4.588;2024-02-26T07:27:39;5.35;;;3.75;;
26908;SDS011;14477;51.038;4.588;2024-02-26T07:30:05;5.32;;;3.28;;
26908;SDS011;14477;51.038;4.588;2024-02-26T07:32:33;6.50;;;3.97;;
26908;SDS011;14477;51.038;4.588;2024-02-26T07:34:58;6.23;;;4.30;;
26908;SDS011;14477;51.038;4.588;2024-02-26T07:37:24;6.32;;;3.90;;
26908;SDS011;14477;51.038;4.588;2024-02-26T07:39:50;5.37;;;3.70;;
26908;SDS011;14477;51.038;4.588;2024-02-26T07:42:15;4.63;;;3.40;;
26908;SDS011;14477;51.038;4.588;2024-02-26T07:44:41;4.93;;;3.40;;
26908;SDS011;14477;51.038;4.588;2024-02-26T07:47:08;6.05;;;3.53;;
26908;SDS011;14477;51.038;4.588;2024-02-26T07:49:34;5.55;;;3.80;;
26908;SDS011;14477;51.038;4.588;2024-02-26T07:52:00;5.43;;;3.67;;
26908;SDS011;14477;51.038;4.588;2024-02-26T07:54:26;5.53;;;3.83;;
26908;SDS011;14477;51.038;4.588;2024-02-26T07:56:51;6.33;;;3.80;;
26908;SDS011;14477;51.038;4.588;2024-02-26T07:59:17;5.35;;;3.80;;
26908;SDS011;14477;51.038;4.588;2024-02-26T08:01:43;3.70;;;2.57;;
26908;SDS011;14477;51.038;4.588;2024-02-26T08:04:09;4.72;;;3.20;;
26908;SDS011;14477;51.038;4.588;2024-02-26T08:06:35;4.97;;;3.23;;
26908;SDS011;14477;51.038;4.588;2024-02-26T08:09:00;4.90;;;3.20;;
26908;SDS011;14477;51.038;4.588;2024-02-26T08:11:26;5.40;;;3.60;;
26908;SDS011;14477;51.038;4.588;2024-02-26T08:13:53;3.83;;;2.80;;
26908;SDS011;14477;51.038;4.588;2024-02-26T08:16:18;5.45;;;2.90;;
26908;SDS011;14477;51.038;4.588;2024-02-26T08:18:44;4.07;;;2.70;;
26908;SDS011;14477;51.038;4.588;2024-02-26T08:21:10;3.40;;;2.40;;
26908;SDS011;14477;51.038;4.588;2024-02-26T08:23:35;4.17;;;2.80;;
26908;SDS011;14477;51.038;4.588;2024-02-26T08:26:01;3.88;;;2.80;;
26908;SDS011;14477;51.038;4.588;2024-02-26T08:28:29;4.55;;;2.83;;
26908;SDS011;14477;51.038;4.588;2024-02-26T08:30:55;4.87;;;3.17;;
26908;SDS011;14477;51.038;4.588;2024-02-26T08:33:20;5.57;;;3.60;;
26908;SDS011;14477;51.038;4.588;2024-02-26T08:35:46;4.67;;;3.13;;
26908;SDS011;14477;51.038;4.588;2024-02-26T08:38:12;4.82;;;3.20;;
26908;SDS011;14477;51.038;4.588;2024-02-26T08:40:37;4.33;;;3.13;;
26908;SDS011;14477;51.038;4.588;2024-02-26T08:43:03;4.80;;;3.30;;
26908;SDS011;14477;51.038;4.588;2024-02-26T08:45:29;4.63;;;3.00;;
26908;SDS011;14477;51.038;4.588;2024-02-26T08:47:55;6.20;;;4.00;;
26908;SDS011;14477;51.038;4.588;2024-02-26T08:50:20;5.80;;;3.80;;
26908;SDS011;14477;51.038;4.588;2024-02-26T08:52:46;5.32;;;3.60;;
26908;SDS011;14477;51.038;4.588;2024-02-26T08:55:15;4.97;;;3.20;;
26908;SDS011;14477;51.038;4.588;2024-02-26T08:57:41;4.87;;;3.03;;
26908;SDS011;14477;51.038;4.588;2024-02-26T09:00:08;5.40;;;2.78;;
26908;SDS011;14477;51.038;4.588;2024-02-26T09:02:34;4.78;;;2.88;;
26908;SDS011;14477;51.038;4.588;2024-02-26T09:04:59;6.17;;;3.97;;
26908;SDS011;14477;51.038;4.588;2024-02-26T09:07:25;5.30;;;3.20;;
26908;SDS011;14477;51.038;4.588;2024-02-26T09:09:51;6.10;;;3.90;;
26908;SDS011;14477;51.038;4.588;2024-02-26T09:12:16;4.50;;;3.07;;
26908;SDS011;14477;51.038;4.588;2024-02-26T09:14:42;5.43;;;3.40;;
26908;SDS011;14477;51.038;4.588;2024-02-26T09:17:08;5.57;;;3.70;;
26908;SDS011;14477;51.038;4.588;2024-02-26T09:19:33;4.35;;;3.25;;
26908;SDS011;14477;51.038;4.588;2024-02-26T09:21:59;5.37;;;3.80;;
26908;SDS011;14477;51.038;4.588;2024-02-26T09:24:25;5.63;;;3.72;;
26908;SDS011;14477;51.038;4.588;2024-02-26T09:26:51;5.90;;;3.70;;
26908;SDS011;14477;51.038;4.588;2024-02-26T09:29:17;6.68;;;4.50;;
26908;SDS011;14477;51.038;4.588;2024-02-26T09:31:43;5.60;;;3.60;;
26908;SDS011;14477;51.038;4.588;2024-02-26T09:34:12;6.47;;;4.47;;
26908;SDS011;14477;51.038;4.588;2024-02-26T09:36:38;5.22;;;3.45;;
26908;SDS011;14477;51.038;4.588;2024-02-26T09:39:04;7.68;;;4.63;;
26908;SDS011;14477;51.038;4.588;2024-02-26T09:41:32;5.68;;;3.60;;
26908;SDS011;14477;51.038;4.588;2024-02-26T09:43:58;5.90;;;3.30;;
26908;SDS011;14477;51.038;4.588;2024-02-26T09:46:27;4.00;;;2.65;;
26908;SDS011;14477;51.038;4.588;2024-02-26T09:48:54;4.70;;;3.10;;
26908;SDS011;14477;51.038;4.588;2024-02-26T09:51:21;5.50;;;2.80;;
26908;SDS011;14477;51.038;4.588;2024-02-26T09:53:51;5.70;;;3.50;;
26908;SDS011;14477;51.038;4.588;2024-02-26T09:56:18;4.82;;;3.30;;
26908;SDS011;14477;51.038;4.588;2024-02-26T09:58:44;4.53;;;2.92;;
26908;SDS011;14477;51.038;4.588;2024-02-26T10:01:16;4.57;;;3.00;;
26908;SDS011;14477;51.038;4.588;2024-02-26T10:03:43;4.90;;;3.28;;
26908;SDS011;14477;51.038;4.588;2024-02-26T10:06:10;5.57;;;3.67;;
26908;SDS011;14477;51.038;4.588;2024-02-26T10:08:36;3.92;;;2.83;;
26908;SDS011;14477;51.038;4.588;2024-02-26T10:11:12;3.72;;;2.47;;
26908;SDS011;14477;51.038;4.588;2024-02-26T10:13:39;4.68;;;3.10;;
26908;SDS011;14477;51.038;4.588;2024-02-26T10:16:06;3.35;;;2.45;;
26908;SDS011;14477;51.038;4.588;2024-02-26T10:21:15;4.10;;;2.90;;
26908;SDS011;14477;51.038;4.588;2024-02-26T10:23:43;3.78;;;2.53;;
26908;SDS011;14477;51.038;4.588;2024-02-26T10:26:10;4.15;;;2.75;;
26908;SDS011;14477;51.038;4.588;2024-02-26T10:28:37;3.72;;;2.42;;
26908;SDS011;14477;51.038;4.588;2024-02-26T10:31:04;3.60;;;2.40;;
26908;SDS011;14477;51.038;4.588;2024-02-26T10:33:31;3.50;;;2.33;;
26908;SDS011;14477;51.038;4.588;2024-02-26T10:36:00;3.97;;;2.47;;
26908;SDS011;14477;51.038;4.588;2024-02-26T10:38:26;3.10;;;2.10;;
26908;SDS011;14477;51.038;4.588;2024-02-26T10:40:52;3.10;;;1.83;;
26908;SDS011;14477;51.038;4.588;2024-02-26T10:43:18;4.07;;;2.80;;
26908;SDS011;14477;51.038;4.588;2024-02-26T10:45:45;3.90;;;2.60;;
26908;SDS011;14477;51.038;4.588;2024-02-26T10:48:13;3.67;;;2.30;;
26908;SDS011;14477;51.038;4.588;2024-02-26T10:50:39;4.13;;;2.53;;
26908;SDS011;14477;51.038;4.588;2024-02-26T10:53:10;3.45;;;2.28;;
26908;SDS011;14477;51.038;4.588;2024-02-26T10:55:55;3.35;;;2.50;;
26908;SDS011;14477;51.038;4.588;2024-02-26T10:58:24;3.90;;;2.60;;
26908;SDS011;14477;51.038;4.588;2024-02-26T11:00:51;3.33;;;2.33;;
26908;SDS011;14477;51.038;4.588;2024-02-26T11:03:17;2.92;;;1.83;;
26908;SDS011;14477;51.038;4.588;2024-02-26T11:05:48;3.83;;;2.40;;
26908;SDS011;14477;51.038;4.588;2024-02-26T11:08:21;3.38;;;2.20;;
26908;SDS011;14477;51.038;4.588;2024-02-26T11:10:49;3.90;;;2.47;;
26908;SDS011;14477;51.038;4.588;2024-02-26T11:13:18;3.58;;;2.30;;
26908;SDS011;14477;51.038;4.588;2024-02-26T11:15:47;5.30;;;2.85;;
26908;SDS011;14477;51.038;4.588;2024-02-26T11:18:15;5.30;;;3.63;;
26908;SDS011;14477;51.038;4.588;2024-02-26T11:20:41;4.55;;;2.83;;
26908;SDS011;14477;51.038;4.588;2024-02-26T11:23:08;4.70;;;2.50;;
26908;SDS011;14477;51.038;4.588;2024-02-26T11:25:35;4.13;;;2.80;;
26908;SDS011;14477;51.038;4.588;2024-02-26T11:28:03;4.53;;;3.10;;
26908;SDS011;14477;51.038;4.588;2024-02-26T11:30:33;4.72;;;3.05;;
26908;SDS011;14477;51.038;4.588;2024-02-26T11:33:04;5.13;;;3.00;;
26908;SDS011;14477;51.038;4.588;2024-02-26T11:35:33;5.05;;;3.20;;
26908;SDS011;14477;51.038;4.588;2024-02-26T11:38:01;4.88;;;3.05;;
26908;SDS011;14477;51.038;4.588;2024-02-26T11:40:28;4.60;;;3.00;;
26908;SDS011;14477;51.038;4.588;2024-02-26T11:42:56;4.75;;;2.88;;
26908;SDS011;14477;51.038;4.588;2024-02-26T11:48:16;6.00;;;3.40;;
26908;SDS011;14477;51.038;4.588;2024-02-26T11:50:47;5.50;;;3.70;;
26908;SDS011;14477;51.038;4.588;2024-02-26T11:53:21;5.05;;;3.20;;
26908;SDS011;14477;51.038;4.588;2024-02-26T11:56:40;5.13;;;3.50;;
26908;SDS011;14477;51.038;4.588;2024-02-26T11:58:38;3.83;;;2.53;;
26908;SDS011;14477;51.038;4.588;2024-02-26T12:01:05;5.50;;;3.00;;
26908;SDS011;14477;51.038;4.588;2024-02-26T12:03:51;4.60;;;3.40;;
26908;SDS011;14477;51.038;4.588;2024-02-26T12:06:20;5.18;;;3.28;;
26908;SDS011;14477;51.038;4.588;2024-02-26T12:08:46;3.92;;;2.80;;
26908;SDS011;14477;51.038;4.588;2024-02-26T12:11:15;4.07;;;2.37;;
26908;SDS011;14477;51.038;4.588;2024-02-26T12:13:41;4.72;;;2.70;;
26908;SDS011;14477;51.038;4.588;2024-02-26T12:16:07;3.15;;;2.20;;
26908;SDS011;14477;51.038;4.588;2024-02-26T12:18:34;4.30;;;2.80;;
26908;SDS011;14477;51.038;4.588;2024-02-26T12:21:00;3.73;;;2.50;;
26908;SDS011;14477;51.038;4.588;2024-02-26T12:23:29;3.95;;;2.50;;
26908;SDS011;14477;51.038;4.588;2024-02-26T12:25:59;4.68;;;2.80;;
26908;SDS011;14477;51.038;4.588;2024-02-26T12:28:28;5.00;;;3.10;;
26908;SDS011;14477;51.038;4.588;2024-02-26T12:30:54;4.85;;;2.85;;
26908;SDS011;14477;51.038;4.588;2024-02-26T12:33:20;4.60;;;2.70;;
26908;SDS011;14477;51.038;4.588;2024-02-26T12:35:46;5.05;;;3.15;;
26908;SDS011;14477;51.038;4.588;2024-02-26T12:38:16;5.70;;;3.20;;
26908;SDS011;14477;51.038;4.588;2024-02-26T12:40:42;4.82;;;2.70;;
26908;SDS011;14477;51.038;4.588;2024-02-26T12:43:07;5.17;;;3.20;;
26908;SDS011;14477;51.038;4.588;2024-02-26T12:45:39;4.70;;;2.97;;
26908;SDS011;14477;51.038;4.588;2024-02-26T12:48:06;5.10;;;3.35;;
26908;SDS011;14477;51.038;4.588;2024-02-26T12:50:35;5.10;;;3.10;;
26908;SDS011;14477;51.038;4.588;2024-02-26T12:53:01;6.77;;;4.30;;
26908;SDS011;14477;51.038;4.588;2024-02-26T12:55:27;5.65;;;3.78;;
26908;SDS011;14477;51.038;4.588;2024-02-26T12:57:53;5.53;;;3.53;;
26908;SDS011;14477;51.038;4.588;2024-02-26T13:00:24;5.45;;;3.47;;
26908;SDS011;14477;51.038;4.588;2024-02-26T13:02:51;5.75;;;3.70;;
26908;SDS011;14477;51.038;4.588;2024-02-26T13:05:19;5.93;;;3.38;;
26908;SDS011;14477;51.038;4.588;2024-02-26T13:07:46;5.68;;;3.67;;
26908;SDS011;14477;51.038;4.588;2024-02-26T13:10:15;5.60;;;3.90;;
26908;SDS011;14477;51.038;4.588;2024-02-26T13:12:46;6.85;;;4.00;;
26908;SDS011;14477;51.038;4.588;2024-02-26T13:15:15;5.95;;;3.88;;
26908;SDS011;14477;51.038;4.588;2024-02-26T13:17:42;5.30;;;3.38;;
26908;SDS011;14477;51.038;4.588;2024-02-26T13:20:12;6.75;;;4.40;;
26908;SDS011;14477;51.038;4.588;2024-02-26T13:22:49;6.37;;;3.30;;
26908;SDS011;14477;51.038;4.588;2024-02-26T13:25:19;7.05;;;4.22;;
26908;SDS011;14477;51.038;4.588;2024-02-26T13:27:46;7.25;;;4.45;;
26908;SDS011;14477;51.038;4.588;2024-02-26T13:30:12;6.20;;;4.00;;
26908;SDS011;14477;51.038;4.588;2024-02-26T13:32:39;6.15;;;3.47;;
26908;SDS011;14477;51.038;4.588;2024-02-26T13:35:09;5.80;;;3.55;;
26908;SDS011;14477;51.038;4.588;2024-02-26T13:37:36;6.25;;;3.47;;
26908;SDS011;14477;51.038;4.588;2024-02-26T13:40:09;6.55;;;3.30;;
26908;SDS011;14477;51.038;4.588;2024-02-26T13:42:39;7.00;;;3.53;;
26908;SDS011;14477;51.038;4.588;2024-02-26T13:45:05;7.22;;;3.83;;
26908;SDS011;14477;51.038;4.588;2024-02-26T13:47:32;5.35;;;2.88;;
26908;SDS011;14477;51.038;4.588;2024-02-26T13:49:58;6.35;;;3.42;;
26908;SDS011;14477;51.038;4.588;2024-02-26T13:52:25;7.40;;;4.05;;
26908;SDS011;14477;51.038;4.588;2024-02-26T13:54:51;5.83;;;3.70;;
26908;SDS011;14477;51.038;4.588;2024-02-26T13:57:17;6.22;;;3.40;;
26908;SDS011;14477;51.038;4.588;2024-02-26T13:59:44;5.88;;;2.90;;
26908;SDS011;14477;51.038;4.588;2024-02-26T14:02:10;7.97;;;4.30;;
26908;SDS011;14477;51.038;4.588;2024-02-26T14:04:36;6.55;;;3.60;;
26908;SDS011;14477;51.038;4.588;2024-02-26T14:07:02;5.97;;;3.30;;
26908;SDS011;14477;51.038;4.588;2024-02-26T14:09:32;6.87;;;3.33;;
26908;SDS011;14477;51.038;4.588;2024-02-26T14:11:59;6.50;;;3.50;;
26908;SDS011;14477;51.038;4.588;2024-02-26T14:14:27;6.10;;;3.33;;
26908;SDS011;14477;51.038;4.588;2024-02-26T14:16:53;7.17;;;3.63;;
26908;SDS011;14477;51.038;4.588;2024-02-26T14:19:18;6.43;;;3.30;;
26908;SDS011;14477;51.038;4.588;2024-02-26T14:21:44;5.77;;;3.00;;
26908;SDS011;14477;51.038;4.588;2024-02-26T14:24:10;6.05;;;3.47;;
26908;SDS011;14477;51.038;4.588;2024-02-26T14:26:35;6.63;;;3.87;;
26908;SDS011;14477;51.038;4.588;2024-02-26T14:29:01;5.93;;;3.42;;
26908;SDS011;14477;51.038;4.588;2024-02-26T14:31:27;5.70;;;3.13;;
26908;SDS011;14477;51.038;4.588;2024-02-26T14:33:53;6.93;;;3.93;;
26908;SDS011;14477;51.038;4.588;2024-02-26T14:36:19;6.30;;;3.58;;
26908;SDS011;14477;51.038;4.588;2024-02-26T14:38:46;5.05;;;3.00;;
26908;SDS011;14477;51.038;4.588;2024-02-26T14:41:12;6.40;;;3.50;;
26908;SDS011;14477;51.038;4.588;2024-02-26T14:43:38;6.45;;;3.47;;
26908;SDS011;14477;51.038;4.588;2024-02-26T14:46:04;5.77;;;3.00;;
26908;SDS011;14477;51.038;4.588;2024-02-26T14:48:30;4.95;;;2.80;;
26908;SDS011;14477;51.038;4.588;2024-02-26T14:50:56;4.40;;;2.30;;